createdAt,value
2022-12-13T00:00:22.917Z,-1.57
2022-12-13T00:05:24.747Z,-1.58
2022-12-13T00:10:26.864Z,-1.55
2022-12-13T00:15:28.588Z,-1.55
2022-12-13T00:20:30.406Z,-1.56
2022-12-13T00:25:33.725Z,-1.52
2022-12-13T00:30:35.905Z,-1.51
2022-12-13T00:35:42.131Z,-1.52
2022-12-13T00:40:43.964Z,-1.52
2022-12-13T00:45:45.708Z,-1.52
2022-12-13T00:50:47.482Z,-1.53
2022-12-13T00:55:49.251Z,-1.53
2022-12-13T01:00:50.949Z,-1.57
2022-12-13T01:11:16.207Z,-1.60
2022-12-13T01:16:18.831Z,-1.61
2022-12-13T01:21:22.307Z,-1.55
2022-12-13T01:26:24.183Z,-1.51
2022-12-13T01:31:26.636Z,-1.50
2022-12-13T01:36:28.590Z,-1.49
2022-12-13T01:41:32.443Z,-1.48
2022-12-13T01:46:36.094Z,-1.52
2022-12-13T01:51:55.975Z,-1.47
2022-12-13T01:57:00.847Z,-1.50
2022-12-13T02:02:03.381Z,-1.48
2022-12-13T02:07:06.267Z,-1.47
2022-12-13T02:12:08.580Z,-1.49
2022-12-13T02:17:26.760Z,-1.45
2022-12-13T02:22:56.566Z,-1.44
2022-12-13T02:28:39.531Z,-1.47
2022-12-13T02:34:07.541Z,-1.46
2022-12-13T02:39:29.726Z,-1.50
2022-12-13T02:44:51.314Z,-1.55
2022-12-13T02:49:57.443Z,-1.57
2022-12-13T02:54:59.500Z,-1.58
2022-12-13T03:00:08.432Z,-1.58
2022-12-13T03:05:42.439Z,-1.60
2022-12-13T03:11:08.726Z,-1.62
2022-12-13T03:16:24.271Z,-1.63
2022-12-13T03:21:26.505Z,-1.63
2022-12-13T03:26:28.170Z,-1.65
2022-12-13T03:31:29.892Z,-1.71
2022-12-13T03:36:32.124Z,-1.73
2022-12-13T03:41:33.954Z,-1.72
2022-12-13T03:46:35.818Z,-1.74
2022-12-13T03:51:37.575Z,-1.74
2022-12-13T03:56:39.233Z,-1.69
2022-12-13T04:01:41.096Z,-1.68
2022-12-13T04:06:42.898Z,-1.67
2022-12-13T04:12:03.172Z,-1.71
2022-12-13T04:17:04.723Z,-1.75
2022-12-13T04:22:06.390Z,-1.78
2022-12-13T04:27:08.166Z,-1.83
2022-12-13T04:32:26.463Z,-1.82
2022-12-13T04:37:30.345Z,-1.84
2022-12-13T04:42:32.075Z,-1.84
2022-12-13T04:47:33.740Z,-1.83
2022-12-13T04:52:35.409Z,-1.82
2022-12-13T04:57:37.095Z,-1.82
2022-12-13T05:02:41.582Z,-1.84
2022-12-13T05:07:45.129Z,-1.87
2022-12-13T05:12:46.754Z,-1.93
2022-12-13T05:17:48.456Z,-1.92
2022-12-13T05:22:50.128Z,-1.93
2022-12-13T05:27:57.035Z,-1.92
2022-12-13T05:32:58.950Z,-1.89
2022-12-13T05:38:00.919Z,-1.90
2022-12-13T05:43:02.556Z,-1.90
2022-12-13T05:48:04.362Z,-1.91
2022-12-13T05:53:07.187Z,-1.97
2022-12-13T05:58:13.255Z,-2.04
2022-12-13T06:03:15.427Z,-2.09
2022-12-13T06:08:24.757Z,-2.11
2022-12-13T06:13:32.186Z,-2.13
2022-12-13T06:18:35.462Z,-2.18
2022-12-13T06:23:37.151Z,-2.18
2022-12-13T06:28:38.858Z,-2.12
2022-12-13T06:33:40.554Z,-2.09
2022-12-13T06:38:43.170Z,-2.11
2022-12-13T06:43:47.670Z,-2.12
2022-12-13T06:48:49.945Z,-2.08
2022-12-13T06:53:52.537Z,-2.07
2022-12-13T06:58:54.263Z,-2.05
2022-12-13T07:04:03.798Z,-2.05
2022-12-13T07:09:05.436Z,-2.01
2022-12-13T07:14:07.699Z,-2.00
2022-12-13T07:19:22.623Z,-1.98
2022-12-13T07:24:26.154Z,-1.94
2022-12-13T07:29:27.821Z,-1.89
2022-12-13T07:34:30.508Z,-1.86
2022-12-13T07:39:32.443Z,-1.81
2022-12-13T07:44:34.080Z,-1.76
2022-12-13T07:49:35.833Z,-1.77
2022-12-13T07:54:37.538Z,-1.86
2022-12-13T07:59:39.179Z,-1.93
2022-12-13T08:04:42.981Z,-1.94
2022-12-13T08:09:48.113Z,-1.80
2022-12-13T08:14:55.259Z,-1.12
2022-12-13T08:19:56.897Z,-1.02
2022-12-13T08:24:58.597Z,-1.11
2022-12-13T08:30:00.330Z,-1.09
2022-12-13T08:35:01.997Z,-1.00
2022-12-13T08:40:06.244Z,-0.92
2022-12-13T08:45:08.636Z,-0.79
2022-12-13T08:50:10.226Z,-0.69
2022-12-13T08:55:13.838Z,-0.50
2022-12-13T09:00:18.308Z,-0.26
2022-12-13T09:05:33.658Z,-0.18
2022-12-13T09:10:38.638Z,-0.14
2022-12-13T09:15:46.157Z,-0.11
2022-12-13T09:20:48.311Z,-0.25
2022-12-13T09:26:05.705Z,-0.35
2022-12-13T09:31:09.773Z,-0.38
2022-12-13T09:36:18.016Z,-0.26
2022-12-13T09:41:29.736Z,-0.07
2022-12-13T09:46:44.926Z,-0.07
2022-12-13T09:52:10.146Z,-0.17
2022-12-13T09:57:34.158Z,-0.35
2022-12-13T10:02:44.378Z,-0.35
2022-12-13T10:07:46.327Z,-0.18
2022-12-13T10:12:55.722Z,0.10
2022-12-13T10:17:59.680Z,0.40
2022-12-13T10:23:31.514Z,0.65
2022-12-13T10:28:31.496Z,0.79
2022-12-13T10:33:41.646Z,0.96
2022-12-13T10:38:45.945Z,1.15
2022-12-13T10:44:08.675Z,1.25
2022-12-13T10:49:19.823Z,1.34
2022-12-13T10:54:38.705Z,1.42
2022-12-13T10:59:50.896Z,1.45
2022-12-13T11:04:52.521Z,1.47
2022-12-13T11:09:54.256Z,1.56
2022-12-13T11:15:06.187Z,1.66
2022-12-13T11:20:19.579Z,1.83
2022-12-13T11:25:28.604Z,2.04
2022-12-13T11:31:01.538Z,2.22
2022-12-13T11:36:32.841Z,2.29
2022-12-13T11:41:40.389Z,2.20
2022-12-13T11:46:46.395Z,2.19
2022-12-13T11:51:58.092Z,2.09
2022-12-13T11:57:07.992Z,1.88
2022-12-13T12:02:32.331Z,1.79
2022-12-13T12:07:58.421Z,1.83
2022-12-13T12:13:23.445Z,1.74
2022-12-13T12:18:25.498Z,1.66
2022-12-13T12:23:58.948Z,1.66
2022-12-13T12:29:28.774Z,1.62
2022-12-13T12:35:04.823Z,1.60
2022-12-13T12:40:18.869Z,1.68
2022-12-13T12:46:00.179Z,1.74
2022-12-13T12:51:10.840Z,1.82
2022-12-13T12:56:19.703Z,1.77
2022-12-13T13:01:43.704Z,1.57
2022-12-13T13:06:50.060Z,1.40
2022-12-13T13:11:57.380Z,1.32
2022-12-13T13:17:20.617Z,1.35
2022-12-13T13:22:32.409Z,1.16
2022-12-13T13:27:42.737Z,1.04
2022-12-13T13:32:44.408Z,0.95
2022-12-13T13:37:48.678Z,0.95
2022-12-13T13:43:05.571Z,0.92
2022-12-13T13:48:37.028Z,0.65
2022-12-13T13:54:03.921Z,0.38
2022-12-13T13:59:38.106Z,0.21
2022-12-13T14:05:18.398Z,0.10
2022-12-13T14:10:32.290Z,0.06
2022-12-13T14:16:12.055Z,-0.03
2022-12-13T14:21:26.586Z,-0.25
2022-12-13T14:27:16.219Z,-0.46
2022-12-13T14:32:31.476Z,-0.76
2022-12-13T14:37:38.489Z,-1.11
2022-12-13T14:42:41.723Z,-1.39
2022-12-13T14:47:50.359Z,-1.64
2022-12-13T14:52:53.297Z,-1.82
2022-12-13T14:57:57.532Z,-2.02
2022-12-13T15:03:01.446Z,-2.20
2022-12-13T15:08:11.003Z,-2.30
2022-12-13T15:13:22.955Z,-2.32
2022-12-13T15:18:25.527Z,-2.35
2022-12-13T15:23:49.668Z,-2.37
2022-12-13T15:29:14.730Z,-2.44
2022-12-13T15:34:37.605Z,-2.57
2022-12-13T15:39:48.097Z,-2.69
2022-12-13T15:44:54.943Z,-2.79
2022-12-13T15:49:59.361Z,-2.85
2022-12-13T15:55:06.774Z,-2.89
2022-12-13T16:00:30.842Z,-2.83
2022-12-13T16:05:37.215Z,-2.79
2022-12-13T16:10:39.015Z,-2.76
2022-12-13T16:16:26.968Z,-2.72
2022-12-13T16:21:30.191Z,-2.67
2022-12-13T16:26:34.132Z,-2.60
2022-12-13T16:31:36.243Z,-2.55
2022-12-13T16:36:38.662Z,-2.55
2022-12-13T16:41:45.837Z,-2.55
2022-12-13T16:47:16.835Z,-2.56
2022-12-13T16:52:09.287Z,-2.54
2022-12-13T16:57:11.067Z,-2.55
2022-12-13T17:02:17.433Z,-2.62
2022-12-13T17:07:19.260Z,-2.71
2022-12-13T17:12:21.108Z,-2.84
2022-12-13T17:17:22.954Z,-2.98
2022-12-13T17:22:24.720Z,-3.09
2022-12-13T17:27:26.667Z,-3.21
2022-12-13T17:32:29.572Z,-3.33
2022-12-13T17:37:32.304Z,-3.46
2022-12-13T17:42:34.983Z,-3.61
2022-12-13T17:47:38.729Z,-3.78
2022-12-13T17:52:40.648Z,-3.63
2022-12-13T17:57:42.324Z,-3.45
2022-12-13T18:02:55.328Z,-3.72
2022-12-13T18:07:58.126Z,-3.95
2022-12-13T18:13:00.475Z,-4.13
2022-12-13T18:18:12.488Z,-4.23
2022-12-13T18:23:15.963Z,-4.27
2022-12-13T18:28:18.554Z,-4.33
2022-12-13T18:33:20.576Z,-4.40
2022-12-13T18:38:24.389Z,-4.46
2022-12-13T18:43:26.629Z,-4.43
2022-12-13T18:48:32.313Z,-4.29
2022-12-13T18:53:35.402Z,-4.23
2022-12-13T18:58:39.783Z,-4.23
2022-12-13T19:03:47.470Z,-4.28
2022-12-13T19:08:51.757Z,-4.34
2022-12-13T19:13:54.013Z,-4.44
2022-12-13T19:18:57.481Z,-4.58
2022-12-13T19:24:01.312Z,-4.74
2022-12-13T19:29:03.742Z,-4.91
2022-12-13T19:34:05.791Z,-5.08
2022-12-13T19:39:07.807Z,-5.22
2022-12-13T19:44:10.113Z,-5.35
2022-12-13T19:49:13.813Z,-5.51
2022-12-13T19:54:16.070Z,-5.67
2022-12-13T19:59:18.121Z,-5.80
2022-12-13T20:04:20.535Z,-5.93
2022-12-13T20:09:22.630Z,-6.12
2022-12-13T20:14:25.601Z,-6.31
2022-12-13T20:19:28.027Z,-6.47
2022-12-13T20:24:30.012Z,-6.37
2022-12-13T20:29:32.573Z,-6.44
2022-12-13T20:34:35.012Z,-6.58
2022-12-13T20:39:37.048Z,-6.67
2022-12-13T20:44:39.066Z,-6.73
2022-12-13T20:49:41.076Z,-6.80
2022-12-13T20:54:43.176Z,-6.85
2022-12-13T20:59:44.945Z,-6.86
2022-12-13T21:04:46.711Z,-6.79
2022-12-13T21:09:48.471Z,-6.66
2022-12-13T21:14:50.246Z,-6.39
2022-12-13T21:19:52.115Z,-6.11
2022-12-13T21:24:55.389Z,-5.83
2022-12-13T21:29:57.186Z,-5.55
2022-12-13T21:34:59.005Z,-5.26
2022-12-13T21:40:00.880Z,-4.98
2022-12-13T21:45:02.795Z,-4.78
2022-12-13T21:50:04.944Z,-4.70
2022-12-13T21:55:37.870Z,-4.62
2022-12-13T22:00:30.269Z,-4.80
2022-12-13T22:05:32.134Z,-4.99
2022-12-13T22:10:33.922Z,-5.16
2022-12-13T22:15:35.725Z,-5.33
2022-12-13T22:20:37.669Z,-5.50
2022-12-13T22:25:39.522Z,-5.67
2022-12-13T22:30:41.634Z,-5.78
2022-12-13T22:35:43.430Z,-5.86
2022-12-13T22:40:45.263Z,-5.99
2022-12-13T22:45:47.105Z,-6.13
2022-12-13T22:50:48.938Z,-6.25
2022-12-13T22:55:51.236Z,-6.38
2022-12-13T23:00:53.136Z,-6.49
2022-12-13T23:05:54.949Z,-6.60
2022-12-13T23:11:18.236Z,-6.64
2022-12-13T23:16:21.982Z,-6.61
2022-12-13T23:21:25.159Z,-6.52
2022-12-13T23:26:29.812Z,-6.39
2022-12-13T23:31:36.244Z,-6.27
2022-12-13T23:36:38.179Z,-6.17
2022-12-13T23:41:40.071Z,-6.13
2022-12-13T23:46:42.125Z,-6.19
2022-12-13T23:51:50.633Z,-6.31
2022-12-13T23:56:52.468Z,-6.49
